Current Weather

Joint Base Andrews

Camp Springs, Maryland (KADW)

Report from: Tuesday, February 27, 2024 4:55 AM EST
Current time: Tuesday, February 27, 2024 5:33 AM EST

Nearby weather – Weather history – Daily summaries
Weather forecast

Temperature8.9°C (48.0°F)
Wind chill6.9°C (44.3°F)
Dew point3.9°C (39.0°F)
Winds 7 kts (3.6 m/s, 8.1 mph) South (190°)
Visibility10 mi. (16.1 km)
Clouds Sky clear
Altimeter29.93 in.Hg (1014 mB)
Relative humidity71 %
Density altitude-644 ft. (-196 m)
Sea-level pressure101.4 kPa (1014 mB, 29.95 in.Hg)
Remarks Fully automated report
System requires maintenance
Automated weather observing station with precipitation discriminator
Flight conditions Visual Meteorological Conditions
Raw dataKADW 270955Z AUTO 19007KT 10SM CLR 09/04 A2993 RMK AO2 SLP142 T00890039 $
An error has occurred. This application may no longer respond until reloaded. Reload 🗙